createdAt,value
2023-02-13T00:01:19.533Z,3.00
2023-02-13T00:03:46.178Z,3.07
2023-02-13T00:06:13.198Z,3.60
2023-02-13T00:08:39.932Z,3.43
2023-02-13T00:11:06.679Z,3.83
2023-02-13T00:13:35.459Z,3.30
2023-02-13T00:16:04.517Z,3.17
2023-02-13T00:18:34.905Z,3.40
2023-02-13T00:21:04.074Z,3.67
2023-02-13T00:23:32.197Z,4.03
2023-02-13T00:25:59.827Z,2.90
2023-02-13T00:28:27.388Z,3.30
2023-02-13T00:33:42.264Z,3.23
2023-02-13T00:36:12.039Z,4.03
2023-02-13T00:38:40.645Z,4.43
2023-02-13T00:41:07.618Z,4.23
2023-02-13T00:43:35.164Z,3.30
2023-02-13T00:46:02.458Z,3.37
2023-02-13T00:48:31.259Z,3.73
2023-02-13T00:50:58.412Z,3.73
2023-02-13T00:53:26.962Z,3.80
2023-02-13T00:55:53.849Z,3.30
2023-02-13T00:58:20.989Z,3.37
2023-02-13T01:00:48.409Z,3.47
2023-02-13T01:03:16.731Z,3.50
2023-02-13T01:05:44.705Z,3.03
2023-02-13T01:08:12.912Z,3.47
2023-02-13T01:10:40.802Z,3.30
2023-02-13T01:13:08.745Z,3.47
2023-02-13T01:15:35.614Z,3.30
2023-02-13T01:18:03.227Z,3.20
2023-02-13T01:20:30.903Z,3.13
2023-02-13T01:22:57.978Z,3.47
2023-02-13T01:25:25.689Z,3.33
2023-02-13T01:27:52.414Z,3.27
2023-02-13T01:30:20.419Z,3.40
2023-02-13T01:32:48.018Z,3.77
2023-02-13T01:35:15.938Z,4.00
2023-02-13T01:37:43.212Z,3.53
2023-02-13T01:40:14.152Z,4.13
2023-02-13T01:42:41.111Z,3.93
2023-02-13T01:45:23.442Z,3.90
2023-02-13T01:48:05.867Z,4.93
2023-02-13T01:50:38.257Z,3.70
2023-02-13T01:53:19.788Z,3.40
2023-02-13T01:55:55.193Z,3.70
2023-02-13T01:58:27.296Z,4.00
2023-02-13T02:00:54.004Z,3.97
2023-02-13T02:06:31.119Z,3.37
2023-02-13T02:09:03.444Z,3.30
2023-02-13T02:12:04.505Z,3.80
2023-02-13T02:14:32.261Z,3.70
2023-02-13T02:16:59.134Z,3.63
2023-02-13T02:20:07.735Z,4.47
2023-02-13T02:22:44.727Z,4.13
2023-02-13T02:25:32.190Z,4.37
2023-02-13T02:28:26.536Z,3.77
2023-02-13T02:31:02.348Z,4.07
2023-02-13T02:33:50.613Z,3.90
2023-02-13T02:36:44.452Z,3.70
2023-02-13T02:39:14.585Z,4.33
2023-02-13T02:41:56.655Z,4.20
2023-02-13T02:44:32.658Z,3.70
2023-02-13T02:47:34.949Z,3.80
2023-02-13T02:50:20.216Z,3.50
2023-02-13T02:53:11.939Z,3.23
2023-02-13T02:55:50.487Z,3.47
2023-02-13T02:58:47.833Z,3.60
2023-02-13T03:01:36.998Z,3.70
2023-02-13T03:04:23.754Z,3.33
2023-02-13T03:06:58.178Z,3.23
2023-02-13T03:09:49.484Z,3.17
2023-02-13T03:12:40.184Z,2.67
2023-02-13T03:15:07.629Z,2.90
2023-02-13T03:17:53.328Z,2.80
2023-02-13T03:20:49.256Z,2.70
2023-02-13T03:23:23.431Z,3.80
2023-02-13T03:25:53.023Z,3.50
2023-02-13T03:29:05.564Z,3.23
2023-02-13T03:31:44.926Z,2.60
2023-02-13T03:34:19.459Z,3.10
2023-02-13T03:37:07.377Z,3.10
2023-02-13T03:40:05.437Z,3.00
2023-02-13T03:42:43.649Z,3.03
2023-02-13T03:45:37.537Z,3.00
2023-02-13T03:48:09.994Z,3.20
2023-02-13T03:50:43.208Z,2.97
2023-02-13T03:53:13.265Z,3.10
2023-02-13T03:56:04.702Z,3.57
2023-02-13T03:59:03.650Z,3.13
2023-02-13T04:01:34.332Z,2.40
2023-02-13T04:04:25.902Z,3.10
2023-02-13T04:07:00.666Z,3.70
2023-02-13T04:09:29.664Z,3.40
2023-02-13T04:11:59.735Z,2.87
2023-02-13T04:14:40.925Z,3.43
2023-02-13T04:17:14.856Z,3.80
2023-02-13T04:19:42.223Z,3.37
2023-02-13T04:22:11.558Z,3.13
2023-02-13T04:24:38.818Z,3.00
2023-02-13T04:27:05.891Z,3.53
2023-02-13T04:29:32.505Z,2.87
2023-02-13T04:31:59.525Z,3.40
2023-02-13T04:34:26.162Z,3.00
2023-02-13T04:36:53.178Z,2.97
2023-02-13T04:39:19.763Z,3.10
2023-02-13T04:41:46.801Z,2.97
2023-02-13T04:44:13.402Z,2.90
2023-02-13T04:46:40.449Z,2.80
2023-02-13T04:49:07.081Z,2.53
2023-02-13T04:51:34.119Z,2.57
2023-02-13T04:54:00.774Z,2.73
2023-02-13T04:56:27.952Z,2.93
2023-02-13T04:58:55.158Z,2.70
2023-02-13T05:01:22.465Z,2.73
2023-02-13T05:03:49.330Z,2.70
2023-02-13T05:06:15.979Z,3.10
2023-02-13T05:08:42.590Z,2.43
2023-02-13T05:11:09.204Z,2.83
2023-02-13T05:13:36.260Z,2.97
2023-02-13T05:16:03.432Z,2.77
2023-02-13T05:18:30.085Z,3.00
2023-02-13T05:21:16.141Z,3.00
2023-02-13T05:23:42.760Z,2.60
2023-02-13T05:26:09.389Z,3.00
2023-02-13T05:28:54.883Z,3.50
2023-02-13T05:31:22.016Z,6.33
2023-02-13T05:33:49.326Z,5.40
2023-02-13T05:36:16.018Z,4.90
2023-02-13T05:38:42.615Z,5.50
2023-02-13T05:41:09.702Z,7.63
2023-02-13T05:43:36.777Z,5.47
2023-02-13T05:46:05.513Z,4.83
2023-02-13T05:48:33.073Z,4.90
2023-02-13T05:50:59.823Z,4.87
2023-02-13T05:53:26.541Z,4.73
2023-02-13T05:55:53.811Z,4.83
2023-02-13T05:58:21.429Z,5.07
2023-02-13T06:00:48.878Z,5.20
2023-02-13T06:03:15.690Z,5.30
2023-02-13T06:05:42.758Z,5.90
2023-02-13T06:08:09.366Z,6.07
2023-02-13T06:10:35.953Z,6.07
2023-02-13T06:13:03.013Z,5.40
2023-02-13T06:15:29.675Z,6.40
2023-02-13T06:17:56.794Z,6.50
2023-02-13T06:20:23.589Z,6.53
2023-02-13T06:22:51.564Z,6.70
2023-02-13T06:25:18.691Z,7.93
2023-02-13T06:27:46.414Z,7.53
2023-02-13T06:30:14.940Z,8.23
2023-02-13T06:32:42.419Z,7.13
2023-02-13T06:35:12.927Z,8.07
2023-02-13T06:37:39.546Z,8.73
2023-02-13T06:40:10.749Z,8.07
2023-02-13T06:42:37.381Z,8.63
2023-02-13T06:45:05.931Z,9.27
2023-02-13T06:47:32.586Z,8.97
2023-02-13T06:49:59.841Z,8.67
2023-02-13T06:52:26.522Z,9.10
2023-02-13T06:55:00.831Z,8.93
2023-02-13T06:57:27.460Z,8.00
2023-02-13T06:59:54.046Z,7.63
2023-02-13T07:02:20.777Z,8.07
2023-02-13T07:04:47.381Z,8.47
2023-02-13T07:07:14.742Z,7.37
2023-02-13T07:09:41.340Z,9.20
2023-02-13T07:12:08.902Z,7.73
2023-02-13T07:14:35.522Z,10.87
2023-02-13T07:17:02.797Z,12.03
2023-02-13T07:19:29.851Z,10.47
2023-02-13T07:21:57.144Z,10.70
2023-02-13T07:24:23.873Z,11.40
2023-02-13T07:26:50.969Z,11.40
2023-02-13T07:29:17.582Z,11.90
2023-02-13T07:31:44.244Z,13.13
2023-02-13T07:34:11.723Z,14.70
2023-02-13T07:36:38.333Z,13.63
2023-02-13T07:39:05.528Z,12.13
2023-02-13T07:41:32.162Z,12.77
2023-02-13T07:43:58.761Z,15.03
2023-02-13T07:46:25.854Z,12.37
2023-02-13T07:48:53.127Z,13.13
2023-02-13T07:51:21.220Z,9.70
2023-02-13T07:53:47.820Z,6.77
2023-02-13T07:56:15.084Z,5.93
2023-02-13T07:58:41.871Z,7.50
2023-02-13T08:01:11.194Z,8.17
2023-02-13T08:03:37.863Z,10.77
2023-02-13T08:06:05.817Z,10.90
2023-02-13T08:08:34.076Z,10.77
2023-02-13T08:11:54.539Z,8.40
2023-02-13T08:14:22.713Z,9.77
2023-02-13T08:19:55.714Z,11.13
2023-02-13T08:22:23.164Z,9.17
2023-02-13T08:24:49.792Z,9.43
2023-02-13T08:27:16.564Z,9.53
2023-02-13T08:29:43.201Z,8.40
2023-02-13T08:32:09.982Z,8.10
2023-02-13T08:34:39.777Z,8.00
2023-02-13T08:37:06.427Z,8.60
2023-02-13T08:39:33.822Z,7.43
2023-02-13T08:44:58.184Z,7.50
2023-02-13T08:47:25.884Z,7.50
2023-02-13T08:49:52.479Z,6.78
2023-02-13T08:52:19.166Z,7.32
2023-02-13T08:54:46.104Z,7.00
2023-02-13T08:57:13.173Z,6.20
2023-02-13T08:59:39.864Z,6.78
2023-02-13T09:02:06.702Z,5.78
2023-02-13T09:04:34.678Z,6.13
2023-02-13T09:07:01.286Z,5.57
2023-02-13T09:09:27.948Z,5.88
2023-02-13T09:11:57.725Z,3.97
2023-02-13T09:14:25.187Z,4.20
2023-02-13T09:16:52.756Z,3.53
2023-02-13T09:19:19.429Z,3.40
2023-02-13T09:21:46.717Z,2.90
2023-02-13T09:24:13.330Z,2.50
2023-02-13T09:26:40.436Z,2.50
2023-02-13T09:29:07.096Z,2.40
2023-02-13T09:31:33.959Z,2.33
2023-02-13T09:34:00.607Z,2.08
2023-02-13T09:36:27.240Z,3.78
2023-02-13T09:38:55.962Z,4.30
2023-02-13T09:41:28.960Z,3.92
2023-02-13T09:44:00.080Z,3.50
2023-02-13T09:46:39.437Z,2.97
2023-02-13T09:49:13.068Z,3.20
2023-02-13T09:51:43.283Z,3.20
2023-02-13T09:54:16.212Z,3.15
2023-02-13T09:57:00.598Z,2.47
2023-02-13T09:59:37.383Z,2.20
2023-02-13T10:02:42.920Z,1.80
2023-02-13T10:05:15.465Z,1.90
2023-02-13T10:08:04.354Z,1.83
2023-02-13T10:10:43.549Z,1.10
2023-02-13T10:13:48.322Z,1.00
2023-02-13T10:16:20.923Z,0.80
2023-02-13T10:18:53.996Z,1.10
2023-02-13T10:21:24.644Z,1.00
2023-02-13T10:27:21.996Z,1.00
2023-02-13T10:30:09.958Z,1.00
2023-02-13T10:32:39.115Z,1.10
2023-02-13T10:35:21.309Z,1.27
2023-02-13T10:37:52.794Z,1.00
2023-02-13T10:40:20.377Z,1.00
2023-02-13T10:43:06.268Z,1.25
2023-02-13T10:46:11.668Z,1.00
2023-02-13T10:49:13.232Z,1.00
2023-02-13T10:51:48.432Z,1.10
2023-02-13T10:54:53.354Z,1.10
2023-02-13T10:57:57.189Z,1.20
2023-02-13T11:00:34.966Z,2.78
2023-02-13T11:03:02.681Z,4.95
2023-02-13T11:05:49.224Z,1.35
2023-02-13T11:08:22.133Z,1.50
2023-02-13T11:10:51.105Z,1.35
2023-02-13T11:13:24.071Z,1.60
2023-02-13T11:16:03.423Z,2.20
2023-02-13T11:18:34.077Z,2.10
2023-02-13T11:21:09.853Z,3.70
2023-02-13T11:23:45.255Z,2.50
2023-02-13T11:26:17.899Z,8.67
2023-02-13T11:29:18.230Z,6.83
2023-02-13T11:31:45.068Z,6.17
2023-02-13T11:34:22.221Z,13.40
2023-02-13T11:40:33.205Z,1.93
2023-02-13T11:43:43.343Z,2.17
2023-02-13T11:46:28.076Z,2.13
2023-02-13T11:49:03.806Z,2.00
2023-02-13T11:51:43.388Z,2.00
2023-02-13T11:54:55.933Z,3.17
2023-02-13T11:57:31.363Z,2.30
2023-02-13T12:00:55.184Z,4.90
2023-02-13T12:03:22.656Z,2.40
2023-02-13T12:06:22.217Z,5.60
2023-02-13T12:08:50.770Z,4.00
2023-02-13T12:11:23.238Z,3.47
2023-02-13T12:16:47.962Z,3.13
2023-02-13T12:19:20.093Z,3.27
2023-02-13T12:22:16.410Z,2.63
2023-02-13T12:24:51.879Z,2.40
2023-02-13T12:27:43.389Z,4.13
2023-02-13T12:30:31.581Z,3.93
2023-02-13T12:33:39.953Z,2.47
2023-02-13T12:36:21.644Z,5.53
2023-02-13T12:39:31.805Z,10.00
2023-02-13T12:45:33.815Z,3.80
2023-02-13T12:48:22.310Z,5.93
2023-02-13T12:51:13.636Z,2.97
2023-02-13T13:00:20.583Z,2.00
2023-02-13T13:03:23.605Z,2.00
2023-02-13T13:06:12.699Z,2.00
2023-02-13T13:09:21.000Z,7.03
2023-02-13T13:12:12.910Z,2.50
2023-02-13T13:14:55.630Z,3.33
2023-02-13T13:17:49.866Z,3.30
2023-02-13T13:20:53.817Z,3.27
2023-02-13T13:23:49.397Z,3.30
2023-02-13T13:26:21.167Z,2.60
2023-02-13T13:28:53.695Z,2.50
2023-02-13T13:31:24.157Z,2.50
2023-02-13T13:33:51.152Z,2.60
2023-02-13T13:36:48.992Z,3.20
2023-02-13T13:39:44.952Z,4.60
2023-02-13T13:42:20.321Z,3.93
2023-02-13T13:45:15.815Z,2.53
2023-02-13T13:48:10.188Z,3.33
2023-02-13T13:50:41.995Z,3.20
2023-02-13T13:53:15.921Z,2.83
2023-02-13T13:56:00.749Z,2.73
2023-02-13T13:58:38.027Z,2.70
2023-02-13T14:01:29.562Z,2.80
2023-02-13T14:04:35.676Z,3.90
2023-02-13T14:07:02.233Z,5.00
2023-02-13T14:09:40.400Z,4.57
2023-02-13T14:12:25.410Z,2.73
2023-02-13T14:14:54.005Z,3.93
2023-02-13T14:17:45.375Z,3.57
2023-02-13T14:20:33.780Z,3.53
2023-02-13T14:23:19.369Z,7.13
2023-02-13T14:25:47.472Z,5.23
2023-02-13T14:28:23.643Z,3.57
2023-02-13T14:30:53.584Z,2.97
2023-02-13T14:33:29.198Z,5.53
2023-02-13T14:36:09.247Z,3.27
2023-02-13T14:38:36.710Z,3.70
2023-02-13T14:41:04.270Z,5.50
2023-02-13T14:43:47.584Z,6.37
2023-02-13T14:46:47.978Z,5.40
2023-02-13T14:49:20.919Z,4.80
2023-02-13T14:51:51.084Z,4.10
2023-02-13T14:54:47.422Z,4.40
2023-02-13T14:57:13.977Z,5.33
2023-02-13T14:59:47.357Z,4.27
2023-02-13T15:02:27.214Z,3.73
2023-02-13T15:04:59.187Z,3.97
2023-02-13T15:07:34.240Z,4.37
2023-02-13T15:10:24.930Z,4.03
2023-02-13T15:13:03.654Z,3.57
2023-02-13T15:15:34.230Z,4.10
2023-02-13T15:18:10.578Z,4.40
2023-02-13T15:20:41.465Z,3.90
2023-02-13T15:23:15.368Z,8.17
2023-02-13T15:25:42.546Z,7.87
2023-02-13T15:28:20.943Z,3.67
2023-02-13T15:31:00.003Z,4.10
2023-02-13T15:33:47.205Z,3.77
2023-02-13T15:36:19.943Z,4.80
2023-02-13T15:38:46.671Z,4.10
2023-02-13T15:41:21.106Z,4.30
2023-02-13T15:43:50.778Z,3.67
2023-02-13T15:46:30.831Z,20.50
2023-02-13T15:49:05.825Z,5.70
2023-02-13T15:51:34.838Z,8.00
2023-02-13T15:54:07.862Z,7.90
2023-02-13T15:56:35.591Z,4.60
2023-02-13T15:59:04.141Z,4.50
2023-02-13T16:01:31.909Z,4.80
2023-02-13T16:04:08.888Z,4.37
2023-02-13T16:06:36.226Z,4.70
2023-02-13T16:09:03.077Z,5.10
2023-02-13T16:11:37.869Z,4.27
2023-02-13T16:14:19.446Z,4.37
2023-02-13T16:16:57.693Z,8.13
2023-02-13T16:19:33.381Z,10.67
2023-02-13T16:22:07.550Z,12.93
2023-02-13T16:24:35.720Z,12.17
2023-02-13T16:27:02.531Z,14.97
2023-02-13T16:29:29.582Z,13.70
2023-02-13T16:32:04.838Z,14.50
2023-02-13T16:34:32.413Z,10.40
2023-02-13T16:36:59.091Z,10.47
2023-02-13T16:39:31.917Z,9.97
2023-02-13T16:42:00.342Z,8.83
2023-02-13T16:44:32.462Z,8.23
2023-02-13T16:47:01.706Z,7.77
2023-02-13T16:49:33.577Z,8.57
2023-02-13T16:52:06.988Z,8.53
2023-02-13T16:55:00.597Z,7.53
2023-02-13T16:57:34.493Z,7.00
2023-02-13T17:00:21.889Z,5.80
2023-02-13T17:02:50.653Z,5.70
2023-02-13T17:05:22.196Z,5.40
2023-02-13T17:07:51.518Z,7.17
2023-02-13T17:10:18.305Z,10.03
2023-02-13T17:12:45.601Z,16.00
2023-02-13T17:15:15.033Z,17.00
2023-02-13T17:17:42.310Z,14.43
2023-02-13T17:20:14.723Z,10.60
2023-02-13T17:22:54.038Z,8.70
2023-02-13T17:25:29.705Z,10.37
2023-02-13T17:27:59.306Z,9.93
2023-02-13T17:30:28.574Z,12.13
2023-02-13T17:33:26.490Z,14.70
2023-02-13T17:35:53.766Z,14.27
2023-02-13T17:38:20.977Z,14.57
2023-02-13T17:40:47.984Z,14.20
2023-02-13T17:43:17.332Z,9.10
2023-02-13T17:45:45.591Z,10.80
2023-02-13T17:48:12.249Z,12.13
2023-02-13T17:50:39.353Z,11.20
2023-02-13T17:53:18.822Z,11.27
2023-02-13T17:55:45.835Z,12.90
2023-02-13T17:58:12.455Z,13.67
2023-02-13T18:00:39.088Z,10.80
2023-02-13T18:03:05.810Z,9.40
2023-02-13T18:05:33.556Z,13.57
2023-02-13T18:08:03.661Z,18.83
2023-02-13T18:10:33.408Z,12.67
2023-02-13T18:13:05.376Z,13.03
2023-02-13T18:15:41.063Z,27.30
2023-02-13T18:18:08.629Z,14.83
2023-02-13T18:20:35.467Z,24.87
2023-02-13T18:23:02.186Z,15.93
2023-02-13T18:25:29.163Z,15.87
2023-02-13T18:27:55.846Z,10.70
2023-02-13T18:30:22.599Z,11.10
2023-02-13T18:32:54.382Z,10.87
2023-02-13T18:35:22.624Z,10.93
2023-02-13T18:37:49.519Z,10.63
2023-02-13T18:40:17.479Z,10.23
2023-02-13T18:42:44.898Z,10.47
2023-02-13T18:45:12.141Z,12.57
2023-02-13T18:47:39.023Z,12.53
2023-02-13T18:50:06.393Z,11.90
2023-02-13T18:52:34.486Z,12.67
2023-02-13T18:55:01.363Z,12.70
2023-02-13T18:57:27.963Z,15.27
2023-02-13T18:59:54.871Z,13.33
2023-02-13T19:02:21.524Z,15.43
2023-02-13T19:04:49.444Z,16.53
2023-02-13T19:07:16.040Z,17.37
2023-02-13T19:09:44.331Z,15.83
2023-02-13T19:12:11.225Z,14.97
2023-02-13T19:14:38.392Z,16.57
2023-02-13T19:17:05.412Z,17.17
2023-02-13T19:19:32.075Z,17.97
2023-02-13T19:21:58.750Z,16.47
2023-02-13T19:24:25.651Z,16.20
2023-02-13T19:26:52.336Z,14.33
2023-02-13T19:29:28.187Z,14.53
2023-02-13T19:31:54.854Z,14.90
2023-02-13T19:34:21.729Z,14.53
2023-02-13T19:36:48.343Z,11.87
2023-02-13T19:39:15.064Z,16.17
2023-02-13T19:41:41.813Z,14.73
2023-02-13T19:44:09.068Z,14.17
2023-02-13T19:46:36.506Z,16.60
2023-02-13T19:49:04.212Z,13.47
2023-02-13T19:51:32.584Z,11.77
2023-02-13T19:54:00.864Z,11.30
2023-02-13T19:56:28.841Z,11.40
2023-02-13T19:58:56.198Z,12.40
2023-02-13T20:01:24.695Z,11.50
2023-02-13T20:03:51.403Z,13.20
2023-02-13T20:06:21.451Z,12.80
2023-02-13T20:08:48.571Z,11.70
2023-02-13T20:11:16.902Z,12.03
2023-02-13T20:13:43.854Z,13.10
2023-02-13T20:16:13.919Z,12.67
2023-02-13T20:18:41.197Z,13.23
2023-02-13T20:21:13.623Z,12.53
2023-02-13T20:23:40.799Z,13.60
2023-02-13T20:26:11.160Z,13.50
2023-02-13T20:28:38.303Z,12.57
2023-02-13T20:31:17.116Z,9.57
2023-02-13T20:33:44.902Z,11.87
2023-02-13T20:36:20.569Z,12.07
2023-02-13T20:38:51.864Z,13.20
2023-02-13T20:41:21.250Z,16.97
2023-02-13T20:43:48.286Z,16.97
2023-02-13T20:46:16.126Z,23.23
2023-02-13T20:48:44.788Z,15.03
2023-02-13T20:51:13.799Z,16.30
2023-02-13T20:53:41.344Z,17.13
2023-02-13T20:56:17.227Z,16.60
2023-02-13T20:58:45.459Z,17.87
2023-02-13T21:01:18.815Z,13.93
2023-02-13T21:03:53.579Z,15.37
2023-02-13T21:06:21.881Z,16.70
2023-02-13T21:08:49.042Z,17.87
2023-02-13T21:11:16.188Z,16.57
2023-02-13T21:13:43.282Z,17.37
2023-02-13T21:16:11.293Z,16.77
2023-02-13T21:18:39.598Z,15.43
2023-02-13T21:21:08.070Z,14.63
2023-02-13T21:23:35.518Z,15.77
2023-02-13T21:26:04.973Z,14.37
2023-02-13T21:28:32.568Z,14.97
2023-02-13T21:31:04.396Z,12.37
2023-02-13T21:33:31.097Z,12.40
2023-02-13T21:36:06.671Z,12.30
2023-02-13T21:38:34.824Z,13.23
2023-02-13T21:41:13.050Z,13.17
2023-02-13T21:43:42.026Z,12.27
2023-02-13T21:46:14.368Z,11.70
2023-02-13T21:48:42.397Z,12.30
2023-02-13T21:51:14.126Z,11.23
2023-02-13T21:53:41.707Z,10.47
2023-02-13T21:56:12.709Z,11.43
2023-02-13T21:58:41.260Z,9.97
2023-02-13T22:01:25.464Z,10.10
2023-02-13T22:04:00.312Z,9.87
2023-02-13T22:06:28.951Z,9.47
2023-02-13T22:08:57.775Z,9.40
2023-02-13T22:11:24.789Z,9.90
2023-02-13T22:14:00.079Z,9.63
2023-02-13T22:16:27.206Z,8.90
2023-02-13T22:18:54.853Z,9.03
2023-02-13T22:21:23.801Z,8.77
2023-02-13T22:23:51.013Z,9.50
2023-02-13T22:26:23.722Z,8.50
2023-02-13T22:28:51.390Z,8.63
2023-02-13T22:31:19.715Z,8.77
2023-02-13T22:33:52.352Z,10.03
2023-02-13T22:36:26.006Z,9.17
2023-02-13T22:38:53.364Z,8.47
2023-02-13T22:41:23.900Z,8.60
2023-02-13T22:43:51.659Z,9.07
2023-02-13T22:46:21.106Z,8.63
2023-02-13T22:48:48.271Z,9.67
2023-02-13T22:51:18.285Z,8.93
2023-02-13T22:53:45.818Z,8.60
2023-02-13T22:56:12.469Z,8.43
2023-02-13T22:58:39.521Z,9.27
2023-02-13T23:01:11.495Z,9.30
2023-02-13T23:03:38.652Z,8.57
2023-02-13T23:06:06.278Z,8.90
2023-02-13T23:08:33.389Z,8.77
2023-02-13T23:11:24.556Z,9.17
2023-02-13T23:13:51.190Z,8.23
2023-02-13T23:16:29.001Z,8.40
2023-02-13T23:18:56.856Z,8.63
2023-02-13T23:21:25.497Z,8.77
2023-02-13T23:23:52.357Z,9.40
2023-02-13T23:26:19.700Z,8.90
2023-02-13T23:28:46.534Z,9.70
2023-02-13T23:31:13.246Z,10.07
2023-02-13T23:33:40.184Z,9.07
2023-02-13T23:36:07.396Z,8.80
2023-02-13T23:38:34.252Z,8.57
2023-02-13T23:41:09.901Z,8.40
2023-02-13T23:43:36.821Z,9.67
2023-02-13T23:46:07.310Z,9.77
2023-02-13T23:48:34.242Z,9.80
2023-02-13T23:51:01.810Z,9.67
2023-02-13T23:53:29.145Z,9.10
2023-02-13T23:55:55.921Z,9.03
2023-02-13T23:58:23.097Z,8.87
